Sao Cristovao, Brazil
Current Conditions -  °F | °C
As of 6:00 PM on Friday 24 Oct 2014 (Local Time) from SBAR Reporting Station
Scattered Clouds Scattered Clouds  
Wind Chill: 79°   Ceiling: Unl
Heat Index: 81°   Visibility: 6mi
Dew Point: 68°   Wind: 13mph
Humidity: 69%   Direction: 140°SE
Pressure: 29.94"   Gusts: NA
Location:  11.01°S, 37.21°W
Report Text: SBAR 242100Z 14011KT 9999 SCT016 26/20 Q1014
Loading
Personal Weather Stations






























Interactive Weather Map
Tropical Storm Tracking
New forecast layout! Learn more

10-Day Weather Forecast

Advertisements
Track Severe Weather on mobile